Svitzer Ginga — VNDC — position and weather

sailwx.info

Track history (hours):
 
Tides and Currents Weather Stations Pressure Air Temp Water Temp Dewpoint Dewpoint Depression Visibility Wind Speed Wind Dir Waves Ship Positions

Svitzer Ginga

Last reported at 2018-Jun-18 06:59 UTC. Time now 2018-Jun-22 20:47 UTC.
Position S 32°55' E 151°46'.

; draft 6 m.

Type: Tug. MMSI: 503516000.

Date/timePositionNaut miles runAvg speedWind from/ knotsBaromVisibWave heightAir tempDewpointWater temp
2018-Jun-18 06:59S 32°55' E 151°46'2 2.4
2018-Jun-18 05:59S 32°53' E 151°45'1 2.4
2018-Jun-18 05:27S 32°54' E 151°46'2 4.1
2018-Jun-18 05:00S 32°55' E 151°48'2 2.8
2018-Jun-18 04:22S 32°55' E 151°46'1 1.0
2018-Jun-18 03:26S 32°54' E 151°46'2 4.0
2018-Jun-18 03:00S 32°55' E 151°48'2 1.6
2018-Jun-18 01:53S 32°54' E 151°46'0 0.6
2018-Jun-18 01:19S 32°53' E 151°46'0 0.3
2018-Jun-18 00:50S 32°53' E 151°46'0 0.0
2018-Jun-18 00:30S 32°53' E 151°46'0 0.0
2018-Jun-17 23:58S 32°53' E 151°46'0 0.0
2018-Jun-17 23:30S 32°53' E 151°46'0 0.1
2018-Jun-17 22:42S 32°53' E 151°46'0 0.0
2018-Jun-17 11:40S 32°54' E 151°46'1 4.4
2018-Jun-17 11:27S 32°55' E 151°46'1 0.7
2018-Jun-17 09:50S 32°53' E 151°46'0 0.1
2018-Jun-17 09:20S 32°54' E 151°46'0 0.1
2018-Jun-17 08:08S 32°54' E 151°46'2 0.4
2018-Jun-17 03:08S 32°55' E 151°46'0 2.3
2018-Jun-17 03:00S 32°55' E 151°47'1 1.6
2018-Jun-17 02:10S 32°54' E 151°46'1 3.2
2018-Jun-17 01:59S 32°54' E 151°46'0 0.3
2018-Jun-17 01:10S 32°53' E 151°46'1 2.0
2018-Jun-17 00:26S 32°55' E 151°46'1 2.8
2018-Jun-16 23:58S 32°54' E 151°46'0 0.1
2018-Jun-16 22:53S 32°54' E 151°46'2 0.9
2018-Jun-16 20:51S 32°54' E 151°48'2 0.2
2018-Jun-16 13:38S 32°55' E 151°46'1 1.8
2018-Jun-16 12:53S 32°54' E 151°46'0 0.3
2018-Jun-16 11:04S 32°53' E 151°46'1 0.2
2018-Jun-16 08:39S 32°53' E 151°46'0 1.9
2018-Jun-16 08:26S 32°54' E 151°46'2 3.9
2018-Jun-16 08:00S 32°55' E 151°48'1 0.3
2018-Jun-16 05:34S 32°55' E 151°47'1 2.4
2018-Jun-16 05:03S 32°54' E 151°46'1 3.5
2018-Jun-16 04:49S 32°53' E 151°46'0 0.3
2018-Jun-16 04:17S 32°53' E 151°46'0 0.9
2018-Jun-16 04:00S 32°53' E 151°46'1 1.9
2018-Jun-16 03:30S 32°54' E 151°46'0 0.3
2018-Jun-16 03:00S 32°54' E 151°46'0 0.6
2018-Jun-16 02:26S 32°54' E 151°46'2 3.7
2018-Jun-16 01:56S 32°55' E 151°48'2 1.1
2018-Jun-15 23:57S 32°54' E 151°46'0 0.0
2018-Jun-15 18:45S 32°53' E 151°46'0 1.3
2018-Jun-15 18:28S 32°54' E 151°46'2 3.6
2018-Jun-15 18:00S 32°55' E 151°47'2 1.3
2018-Jun-15 16:26S 32°53' E 151°46'1 2.6
2018-Jun-15 16:00S 32°55' E 151°46'1 0.3
2018-Jun-15 14:07S 32°54' E 151°46'1 4.9
2018-Jun-15 13:58S 32°55' E 151°46'1 0.4
2018-Jun-15 10:25S 32°53' E 151°46'2 0.2
2018-Jun-15 02:04S 32°55' E 151°46'0 0.0
2018-Jun-15 01:53S 32°55' E 151°46'0 0.8
2018-Jun-15 01:23S 32°55' E 151°47'1 1.3
2018-Jun-15 00:21S 32°54' E 151°46'2 1.0
2018-Jun-14 22:28S 32°55' E 151°46'2 1.2
2018-Jun-14 20:40S 32°53' E 151°46'2 0.7
2018-Jun-14 17:41S 32°55' E 151°46'3 3.6
2018-Jun-14 16:57S 32°53' E 151°45'3 0.9
2018-Jun-14 14:00S 32°55' E 151°46'2 1.5
2018-Jun-14 12:46S 32°54' E 151°46'2 0.8
2018-Jun-14 10:32S 32°55' E 151°46'0 5.1
2018-Jun-14 10:30S 32°55' E 151°47'0 0.8
2018-Jun-14 10:00S 32°55' E 151°47'2 3.0
2018-Jun-14 09:29S 32°54' E 151°46'0 0.8
2018-Jun-14 08:54S 32°53' E 151°46'5 0.7
2018-Jun-14 00:32S 32°54' E 151°52'0 0.5
2018-Jun-14 00:30S 32°54' E 151°52'0 0.6
2018-Jun-14 00:00S 32°54' E 151°52'5 3.0
2018-Jun-13 22:25S 32°54' E 151°46'2 4.1
2018-Jun-13 21:58S 32°55' E 151°48'1 2.7
2018-Jun-13 21:29S 32°55' E 151°46'0 0.1
2018-Jun-13 20:53S 32°55' E 151°46'0 0.0
2018-Jun-13 15:08S 32°55' E 151°46'2 2.2
2018-Jun-13 14:05S 32°53' E 151°45'0 2.6
2018-Jun-13 13:59S 32°53' E 151°46'3 3.6
2018-Jun-13 13:13S 32°55' E 151°48'0 1.7
2018-Jun-13 12:59S 32°55' E 151°48'1 2.5
2018-Jun-13 12:23S 32°54' E 151°46'2 1.7
2018-Jun-13 11:27S 32°53' E 151°45'3 0.5
2018-Jun-13 05:38S 32°55' E 151°47'1 2.2
2018-Jun-13 04:57S 32°54' E 151°46'1 1.3
2018-Jun-13 04:27S 32°53' E 151°46'2 1.6
2018-Jun-13 03:15S 32°55' E 151°46'0 0.0
2018-Jun-13 02:01S 32°55' E 151°46'0 0.0
2018-Jun-13 01:58S 32°55' E 151°46'0 0.1
2018-Jun-13 01:23S 32°55' E 151°46'0 0.1
2018-Jun-13 00:55S 32°55' E 151°46'1 0.8
2018-Jun-13 00:17S 32°55' E 151°47'1 2.4
2018-Jun-12 23:59S 32°55' E 151°46'1 1.1
2018-Jun-12 23:29S 32°54' E 151°46'1 1.3
2018-Jun-12 22:48S 32°53' E 151°46'0 1.6
2018-Jun-12 22:29S 32°54' E 151°46'2 3.7
2018-Jun-12 21:57S 32°55' E 151°48'0 0.5
2018-Jun-12 21:30S 32°55' E 151°48'1 2.9
2018-Jun-12 21:00S 32°55' E 151°47'2 2.0
2018-Jun-12 19:50S 32°53' E 151°45'2 6.6
2018-Jun-12 19:29S 32°55' E 151°47'0 0.4
2018-Jun-12 18:46S 32°55' E 151°46'0 0.0
2018-Jun-12 18:30S 32°55' E 151°46'0 0.0
2018-Jun-12 17:58S 32°55' E 151°46'0 0.0
2018-Jun-12 17:30S 32°55' E 151°46'0 0.0
2018-Jun-12 16:50S 32°55' E 151°46'0 0.0
2018-Jun-12 16:27S 32°55' E 151°46'0 0.0
2018-Jun-12 16:00S 32°55' E 151°46'0 0.0
2018-Jun-12 15:29S 32°55' E 151°46'0 0.7
2018-Jun-12 14:59S 32°55' E 151°46'1 1.2
2018-Jun-12 13:45S 32°54' E 151°46'1 4.0
2018-Jun-12 13:26S 32°55' E 151°46'1 3.0
2018-Jun-12 12:59S 32°55' E 151°48'1 2.1
2018-Jun-12 12:30S 32°55' E 151°47'3 3.3
2018-Jun-12 11:38S 32°53' E 151°45'1 2.9
2018-Jun-12 11:25S 32°53' E 151°46'2 3.2
2018-Jun-12 10:53S 32°55' E 151°46'1 3.4
2018-Jun-12 10:30S 32°55' E 151°48'1 2.8
2018-Jun-12 10:00S 32°55' E 151°46'0 0.0
2018-Jun-12 09:28S 32°55' E 151°46'0 0.5
2018-Jun-12 09:00S 32°55' E 151°47'2 3.2
2018-Jun-12 08:30S 32°54' E 151°46'0 0.4
2018-Jun-12 07:40S 32°53' E 151°46'1 8.1
2018-Jun-12 07:30S 32°55' E 151°46'1 0.4
2018-Jun-12 05:23S 32°55' E 151°46'1 2.8
2018-Jun-12 04:51S 32°54' E 151°46'2 2.4
2018-Jun-12 04:13S 32°55' E 151°46'0 0.7
2018-Jun-12 04:00S 32°55' E 151°46'0 0.3
2018-Jun-12 03:17S 32°55' E 151°46'0 0.8
2018-Jun-12 03:01S 32°55' E 151°46'0 0.0
2018-Jun-12 02:30S 32°55' E 151°46'0 0.0
2018-Jun-12 02:00S 32°55' E 151°46'0 0.0
2018-Jun-12 01:30S 32°55' E 151°46'0 0.0
2018-Jun-12 01:00S 32°55' E 151°46'0 0.1
2018-Jun-11 20:36S 32°55' E 151°46'0 0.0
2018-Jun-11 20:28S 32°55' E 151°46'0 0.0
2018-Jun-11 15:26S 32°55' E 151°46'0 0.1
2018-Jun-11 14:59S 32°55' E 151°46'2 2.1
2018-Jun-11 14:08S 32°54' E 151°46'0 1.4
2018-Jun-11 13:56S 32°54' E 151°46'2 2.2
2018-Jun-11 13:07S 32°55' E 151°48'0 0.1
2018-Jun-11 12:54S 32°55' E 151°48'1 2.4
2018-Jun-11 12:19S 32°55' E 151°46'2 1.8
2018-Jun-11 11:27S 32°53' E 151°45'0 0.0
2018-Jun-11 10:00S 32°53' E 151°45'0 0.1
2018-Jun-11 06:54S 32°53' E 151°46'2 3.8
2018-Jun-11 06:15S 32°55' E 151°48'2 1.7
2018-Jun-11 05:01S 32°54' E 151°46'0 2.8
2018-Jun-11 05:00S 32°54' E 151°46'0 0.2
2018-Jun-11 04:21S 32°54' E 151°46'2 2.5
2018-Jun-11 03:37S 32°55' E 151°46'0 0.0
2018-Jun-11 03:13S 32°55' E 151°46'0 0.0
2018-Jun-11 03:00S 32°55' E 151°46'1 0.5
2018-Jun-11 01:54S 32°55' E 151°47'2 3.6
2018-Jun-11 01:28S 32°54' E 151°46'0 0.4
2018-Jun-11 00:21S 32°53' E 151°46'2 0.4
2018-Jun-10 19:31S 32°55' E 151°47'1 4.2
2018-Jun-10 19:22S 32°55' E 151°46'2 3.9
2018-Jun-10 18:59S 32°53' E 151°46'0 0.2
2018-Jun-10 18:28S 32°53' E 151°46'1 3.1
2018-Jun-10 17:59S 32°55' E 151°46'2 1.9
2018-Jun-10 17:04S 32°53' E 151°46'1 8.6
2018-Jun-10 16:58S 32°54' E 151°46'1 0.2
2018-Jun-10 10:32S 32°55' E 151°46'1 1.4
2018-Jun-10 09:46S 32°54' E 151°46'1 0.6
2018-Jun-10 08:30S 32°53' E 151°46'0 0.1
2018-Jun-10 06:14S 32°53' E 151°46'0 0.3
2018-Jun-10 05:52S 32°54' E 151°46'0 0.2
2018-Jun-10 05:23S 32°54' E 151°46'2 4.9
2018-Jun-10 04:59S 32°55' E 151°48'1 2.7
2018-Jun-10 04:30S 32°55' E 151°46'1 1.3
2018-Jun-10 03:55S 32°55' E 151°47'2 0.4
2018-Jun-09 23:40S 32°54' E 151°46'1 4.3
2018-Jun-09 23:31S 32°55' E 151°46'1 2.2
2018-Jun-09 22:51S 32°55' E 151°48'2 2.7
2018-Jun-09 22:15S 32°55' E 151°46'0 0.0
2018-Jun-09 21:52S 32°55' E 151°46'0 0.0
2018-Jun-09 21:13S 32°55' E 151°46'0 0.0
2018-Jun-09 20:57S 32°55' E 151°46'0 0.0
2018-Jun-09 20:30S 32°55' E 151°46'2 1.9
2018-Jun-09 19:29S 32°53' E 151°46'1 0.8
2018-Jun-09 18:03S 32°55' E 151°46'0 2.9
2018-Jun-09 17:57S 32°54' E 151°46'1 1.1
2018-Jun-09 17:12S 32°53' E 151°46'1 0.3
2018-Jun-09 15:01S 32°54' E 151°46'1 2.0
2018-Jun-09 14:28S 32°55' E 151°47'2 3.1
2018-Jun-09 13:57S 32°54' E 151°46'0 0.3
2018-Jun-09 13:05S 32°53' E 151°46'1 8.5
2018-Jun-09 13:01S 32°54' E 151°46'1 0.9
2018-Jun-09 11:30S 32°55' E 151°46'0 0.0
2018-Jun-09 10:56S 32°55' E 151°46'0 0.0
2018-Jun-09 10:31S 32°55' E 151°46'0 0.0
2018-Jun-09 10:00S 32°55' E 151°46'1 0.9
2018-Jun-09 08:29S 32°54' E 151°46'2 3.5
2018-Jun-09 08:00S 32°55' E 151°48'1 1.3
2018-Jun-09 07:10S 32°56' E 151°47'0 0.0
2018-Jun-09 07:00S 32°56' E 151°47'1 1.2
2018-Jun-09 06:24S 32°55' E 151°46'2 3.1
2018-Jun-09 05:46S 32°53' E 151°45'0 1.8
2018-Jun-09 05:30S 32°53' E 151°46'0 0.0
2018-Jun-09 05:01S 32°53' E 151°46'0 0.3
2018-Jun-09 04:28S 32°53' E 151°46'2 1.9
2018-Jun-09 03:22S 32°55' E 151°48'2 2.2
2018-Jun-09 02:38S 32°54' E 151°46'1 2.6
2018-Jun-09 02:23S 32°53' E 151°46'1 0.5
2018-Jun-09 01:00S 32°54' E 151°46'2 4.0
2018-Jun-09 00:30S 32°55' E 151°48'1 2.8
2018-Jun-09 00:00S 32°55' E 151°47'0 0.9
2018-Jun-08 23:30S 32°55' E 151°46'0 0.0
2018-Jun-08 22:58S 32°55' E 151°46'0 0.0
2018-Jun-08 22:30S 32°55' E 151°46'0 0.0
2018-Jun-08 21:59S 32°55' E 151°46'0 0.0
2018-Jun-08 21:30S 32°55' E 151°46'0 0.0
2018-Jun-08 20:55S 32°55' E 151°46'1 1.7
2018-Jun-08 20:12S 32°54' E 151°46'1 3.3
2018-Jun-08 20:00S 32°53' E 151°46'0 0.4
2018-Jun-08 19:19S 32°53' E 151°46'0 0.4
2018-Jun-08 18:49S 32°53' E 151°46'1 2.0
2018-Jun-08 18:27S 32°54' E 151°46'0 0.1
2018-Jun-08 17:33S 32°54' E 151°46'1 7.9
2018-Jun-08 17:27S 32°53' E 151°46'0 0.0
2018-Jun-08 17:00S 32°53' E 151°46'1 0.6
2018-Jun-08 16:04S 32°53' E 151°45'0 2.7
2018-Jun-08 15:59S 32°53' E 151°46'2 1.2
2018-Jun-08 14:26S 32°55' E 151°46'1 0.9
2018-Jun-08 13:04S 32°54' E 151°46'1 8.9
2018-Jun-08 12:59S 32°54' E 151°46'1 0.5
2018-Jun-08 11:29S 32°55' E 151°46'0 0.6
2018-Jun-08 10:56S 32°55' E 151°47'2 3.0
2018-Jun-08 10:25S 32°53' E 151°46'0 0.4
2018-Jun-08 09:56S 32°53' E 151°46'2 4.1
2018-Jun-08 09:27S 32°55' E 151°46'1 2.5
2018-Jun-08 08:58S 32°55' E 151°48'1 2.6
2018-Jun-08 08:30S 32°55' E 151°46'1 1.1
2018-Jun-08 07:17S 32°53' E 151°46'  
Track history (hours):
 
Tides and Currents Weather Stations Pressure Air Temp Water Temp Dewpoint Dewpoint Depression Visibility Wind Speed Wind Dir Waves Ship Positions

Svitzer Ginga

Last reported at 2018-Jun-18 06:59 UTC. Time now 2018-Jun-22 20:47 UTC.
Position S 32°55' E 151°46'.

; draft 6 m.

Type: Tug. MMSI: 503516000.

Date/timePositionNaut miles runAvg speedWind from/ knotsBaromVisibWave heightAir tempDewpointWater temp
2018-Jun-18 06:59S 32°55' E 151°46'2 2.4
2018-Jun-18 05:59S 32°53' E 151°45'1 2.4
2018-Jun-18 05:27S 32°54' E 151°46'2 4.1
2018-Jun-18 05:00S 32°55' E 151°48'2 2.8
2018-Jun-18 04:22S 32°55' E 151°46'1 1.0
2018-Jun-18 03:26S 32°54' E 151°46'2 4.0
2018-Jun-18 03:00S 32°55' E 151°48'2 1.6
2018-Jun-18 01:53S 32°54' E 151°46'0 0.6
2018-Jun-18 01:19S 32°53' E 151°46'0 0.3
2018-Jun-18 00:50S 32°53' E 151°46'0 0.0
2018-Jun-18 00:30S 32°53' E 151°46'0 0.0
2018-Jun-17 23:58S 32°53' E 151°46'0 0.0
2018-Jun-17 23:30S 32°53' E 151°46'0 0.1
2018-Jun-17 22:42S 32°53' E 151°46'0 0.0
2018-Jun-17 11:40S 32°54' E 151°46'1 4.4
2018-Jun-17 11:27S 32°55' E 151°46'1 0.7
2018-Jun-17 09:50S 32°53' E 151°46'0 0.1
2018-Jun-17 09:20S 32°54' E 151°46'0 0.1
2018-Jun-17 08:08S 32°54' E 151°46'2 0.4
2018-Jun-17 03:08S 32°55' E 151°46'0 2.3
2018-Jun-17 03:00S 32°55' E 151°47'1 1.6
2018-Jun-17 02:10S 32°54' E 151°46'1 3.2
2018-Jun-17 01:59S 32°54' E 151°46'0 0.3
2018-Jun-17 01:10S 32°53' E 151°46'1 2.0
2018-Jun-17 00:26S 32°55' E 151°46'1 2.8
2018-Jun-16 23:58S 32°54' E 151°46'0 0.1
2018-Jun-16 22:53S 32°54' E 151°46'2 0.9
2018-Jun-16 20:51S 32°54' E 151°48'2 0.2
2018-Jun-16 13:38S 32°55' E 151°46'1 1.8
2018-Jun-16 12:53S 32°54' E 151°46'0 0.3
2018-Jun-16 11:04S 32°53' E 151°46'1 0.2
2018-Jun-16 08:39S 32°53' E 151°46'0 1.9
2018-Jun-16 08:26S 32°54' E 151°46'2 3.9
2018-Jun-16 08:00S 32°55' E 151°48'1 0.3
2018-Jun-16 05:34S 32°55' E 151°47'1 2.4
2018-Jun-16 05:03S 32°54' E 151°46'1 3.5
2018-Jun-16 04:49S 32°53' E 151°46'0 0.3
2018-Jun-16 04:17S 32°53' E 151°46'0 0.9
2018-Jun-16 04:00S 32°53' E 151°46'1 1.9
2018-Jun-16 03:30S 32°54' E 151°46'0 0.3
2018-Jun-16 03:00S 32°54' E 151°46'0 0.6
2018-Jun-16 02:26S 32°54' E 151°46'2 3.7
2018-Jun-16 01:56S 32°55' E 151°48'2 1.1
2018-Jun-15 23:57S 32°54' E 151°46'0 0.0
2018-Jun-15 18:45S 32°53' E 151°46'0 1.3
2018-Jun-15 18:28S 32°54' E 151°46'2 3.6
2018-Jun-15 18:00S 32°55' E 151°47'2 1.3
2018-Jun-15 16:26S 32°53' E 151°46'1 2.6
2018-Jun-15 16:00S 32°55' E 151°46'1 0.3
2018-Jun-15 14:07S 32°54' E 151°46'1 4.9
2018-Jun-15 13:58S 32°55' E 151°46'1 0.4
2018-Jun-15 10:25S 32°53' E 151°46'2 0.2
2018-Jun-15 02:04S 32°55' E 151°46'0 0.0
2018-Jun-15 01:53S 32°55' E 151°46'0 0.8
2018-Jun-15 01:23S 32°55' E 151°47'1 1.3
2018-Jun-15 00:21S 32°54' E 151°46'2 1.0
2018-Jun-14 22:28S 32°55' E 151°46'2 1.2
2018-Jun-14 20:40S 32°53' E 151°46'2 0.7
2018-Jun-14 17:41S 32°55' E 151°46'3 3.6
2018-Jun-14 16:57S 32°53' E 151°45'3 0.9
2018-Jun-14 14:00S 32°55' E 151°46'2 1.5
2018-Jun-14 12:46S 32°54' E 151°46'2 0.8
2018-Jun-14 10:32S 32°55' E 151°46'0 5.1
2018-Jun-14 10:30S 32°55' E 151°47'0 0.8
2018-Jun-14 10:00S 32°55' E 151°47'2 3.0
2018-Jun-14 09:29S 32°54' E 151°46'0 0.8
2018-Jun-14 08:54S 32°53' E 151°46'5 0.7
2018-Jun-14 00:32S 32°54' E 151°52'0 0.5
2018-Jun-14 00:30S 32°54' E 151°52'0 0.6
2018-Jun-14 00:00S 32°54' E 151°52'5 3.0
2018-Jun-13 22:25S 32°54' E 151°46'2 4.1
2018-Jun-13 21:58S 32°55' E 151°48'1 2.7
2018-Jun-13 21:29S 32°55' E 151°46'0 0.1
2018-Jun-13 20:53S 32°55' E 151°46'0 0.0
2018-Jun-13 15:08S 32°55' E 151°46'2 2.2
2018-Jun-13 14:05S 32°53' E 151°45'0 2.6
2018-Jun-13 13:59S 32°53' E 151°46'3 3.6
2018-Jun-13 13:13S 32°55' E 151°48'0 1.7
2018-Jun-13 12:59S 32°55' E 151°48'1 2.5
2018-Jun-13 12:23S 32°54' E 151°46'2 1.7
2018-Jun-13 11:27S 32°53' E 151°45'3 0.5
2018-Jun-13 05:38S 32°55' E 151°47'1 2.2
2018-Jun-13 04:57S 32°54' E 151°46'1 1.3
2018-Jun-13 04:27S 32°53' E 151°46'2 1.6
2018-Jun-13 03:15S 32°55' E 151°46'0 0.0
2018-Jun-13 02:01S 32°55' E 151°46'0 0.0
2018-Jun-13 01:58S 32°55' E 151°46'0 0.1
2018-Jun-13 01:23S 32°55' E 151°46'0 0.1
2018-Jun-13 00:55S 32°55' E 151°46'1 0.8
2018-Jun-13 00:17S 32°55' E 151°47'1 2.4
2018-Jun-12 23:59S 32°55' E 151°46'1 1.1
2018-Jun-12 23:29S 32°54' E 151°46'1 1.3
2018-Jun-12 22:48S 32°53' E 151°46'0 1.6
2018-Jun-12 22:29S 32°54' E 151°46'2 3.7
2018-Jun-12 21:57S 32°55' E 151°48'0 0.5
2018-Jun-12 21:30S 32°55' E 151°48'1 2.9
2018-Jun-12 21:00S 32°55' E 151°47'2 2.0
2018-Jun-12 19:50S 32°53' E 151°45'2 6.6
2018-Jun-12 19:29S 32°55' E 151°47'0 0.4
2018-Jun-12 18:46S 32°55' E 151°46'0 0.0
2018-Jun-12 18:30S 32°55' E 151°46'0 0.0
2018-Jun-12 17:58S 32°55' E 151°46'0 0.0
2018-Jun-12 17:30S 32°55' E 151°46'0 0.0
2018-Jun-12 16:50S 32°55' E 151°46'0 0.0
2018-Jun-12 16:27S 32°55' E 151°46'0 0.0
2018-Jun-12 16:00S 32°55' E 151°46'0 0.0
2018-Jun-12 15:29S 32°55' E 151°46'0 0.7
2018-Jun-12 14:59S 32°55' E 151°46'1 1.2
2018-Jun-12 13:45S 32°54' E 151°46'1 4.0
2018-Jun-12 13:26S 32°55' E 151°46'1 3.0
2018-Jun-12 12:59S 32°55' E 151°48'1 2.1
2018-Jun-12 12:30S 32°55' E 151°47'3 3.3
2018-Jun-12 11:38S 32°53' E 151°45'1 2.9
2018-Jun-12 11:25S 32°53' E 151°46'2 3.2
2018-Jun-12 10:53S 32°55' E 151°46'1 3.4
2018-Jun-12 10:30S 32°55' E 151°48'1 2.8
2018-Jun-12 10:00S 32°55' E 151°46'0 0.0
2018-Jun-12 09:28S 32°55' E 151°46'0 0.5
2018-Jun-12 09:00S 32°55' E 151°47'2 3.2
2018-Jun-12 08:30S 32°54' E 151°46'0 0.4
2018-Jun-12 07:40S 32°53' E 151°46'1 8.1
2018-Jun-12 07:30S 32°55' E 151°46'1 0.4
2018-Jun-12 05:23S 32°55' E 151°46'1 2.8
2018-Jun-12 04:51S 32°54' E 151°46'2 2.4
2018-Jun-12 04:13S 32°55' E 151°46'0 0.7
2018-Jun-12 04:00S 32°55' E 151°46'0 0.3
2018-Jun-12 03:17S 32°55' E 151°46'0 0.8
2018-Jun-12 03:01S 32°55' E 151°46'0 0.0
2018-Jun-12 02:30S 32°55' E 151°46'0 0.0
2018-Jun-12 02:00S 32°55' E 151°46'0 0.0
2018-Jun-12 01:30S 32°55' E 151°46'0 0.0
2018-Jun-12 01:00S 32°55' E 151°46'0 0.1
2018-Jun-11 20:36S 32°55' E 151°46'0 0.0
2018-Jun-11 20:28S 32°55' E 151°46'0 0.0
2018-Jun-11 15:26S 32°55' E 151°46'0 0.1
2018-Jun-11 14:59S 32°55' E 151°46'2 2.1
2018-Jun-11 14:08S 32°54' E 151°46'0 1.4
2018-Jun-11 13:56S 32°54' E 151°46'2 2.2
2018-Jun-11 13:07S 32°55' E 151°48'0 0.1
2018-Jun-11 12:54S 32°55' E 151°48'1 2.4
2018-Jun-11 12:19S 32°55' E 151°46'2 1.8
2018-Jun-11 11:27S 32°53' E 151°45'0 0.0
2018-Jun-11 10:00S 32°53' E 151°45'0 0.1
2018-Jun-11 06:54S 32°53' E 151°46'2 3.8
2018-Jun-11 06:15S 32°55' E 151°48'2 1.7
2018-Jun-11 05:01S 32°54' E 151°46'0 2.8
2018-Jun-11 05:00S 32°54' E 151°46'0 0.2
2018-Jun-11 04:21S 32°54' E 151°46'2 2.5
2018-Jun-11 03:37S 32°55' E 151°46'0 0.0
2018-Jun-11 03:13S 32°55' E 151°46'0 0.0
2018-Jun-11 03:00S 32°55' E 151°46'1 0.5
2018-Jun-11 01:54S 32°55' E 151°47'2 3.6
2018-Jun-11 01:28S 32°54' E 151°46'0 0.4
2018-Jun-11 00:21S 32°53' E 151°46'2 0.4
2018-Jun-10 19:31S 32°55' E 151°47'1 4.2
2018-Jun-10 19:22S 32°55' E 151°46'2 3.9
2018-Jun-10 18:59S 32°53' E 151°46'0 0.2
2018-Jun-10 18:28S 32°53' E 151°46'1 3.1
2018-Jun-10 17:59S 32°55' E 151°46'2 1.9
2018-Jun-10 17:04S 32°53' E 151°46'1 8.6
2018-Jun-10 16:58S 32°54' E 151°46'1 0.2
2018-Jun-10 10:32S 32°55' E 151°46'1 1.4
2018-Jun-10 09:46S 32°54' E 151°46'1 0.6
2018-Jun-10 08:30S 32°53' E 151°46'0 0.1
2018-Jun-10 06:14S 32°53' E 151°46'0 0.3
2018-Jun-10 05:52S 32°54' E 151°46'0 0.2
2018-Jun-10 05:23S 32°54' E 151°46'2 4.9
2018-Jun-10 04:59S 32°55' E 151°48'1 2.7
2018-Jun-10 04:30S 32°55' E 151°46'1 1.3
2018-Jun-10 03:55S 32°55' E 151°47'2 0.4
2018-Jun-09 23:40S 32°54' E 151°46'1 4.3
2018-Jun-09 23:31S 32°55' E 151°46'1 2.2
2018-Jun-09 22:51S 32°55' E 151°48'2 2.7
2018-Jun-09 22:15S 32°55' E 151°46'0 0.0
2018-Jun-09 21:52S 32°55' E 151°46'0 0.0
2018-Jun-09 21:13S 32°55' E 151°46'0 0.0
2018-Jun-09 20:57S 32°55' E 151°46'0 0.0
2018-Jun-09 20:30S 32°55' E 151°46'2 1.9
2018-Jun-09 19:29S 32°53' E 151°46'1 0.8
2018-Jun-09 18:03S 32°55' E 151°46'0 2.9
2018-Jun-09 17:57S 32°54' E 151°46'1 1.1
2018-Jun-09 17:12S 32°53' E 151°46'1 0.3
2018-Jun-09 15:01S 32°54' E 151°46'1 2.0
2018-Jun-09 14:28S 32°55' E 151°47'2 3.1
2018-Jun-09 13:57S 32°54' E 151°46'0 0.3
2018-Jun-09 13:05S 32°53' E 151°46'1 8.5
2018-Jun-09 13:01S 32°54' E 151°46'1 0.9
2018-Jun-09 11:30S 32°55' E 151°46'0 0.0
2018-Jun-09 10:56S 32°55' E 151°46'0 0.0
2018-Jun-09 10:31S 32°55' E 151°46'0 0.0
2018-Jun-09 10:00S 32°55' E 151°46'1 0.9
2018-Jun-09 08:29S 32°54' E 151°46'2 3.5
2018-Jun-09 08:00S 32°55' E 151°48'1 1.3
2018-Jun-09 07:10S 32°56' E 151°47'0 0.0
2018-Jun-09 07:00S 32°56' E 151°47'1 1.2
2018-Jun-09 06:24S 32°55' E 151°46'2 3.1
2018-Jun-09 05:46S 32°53' E 151°45'0 1.8
2018-Jun-09 05:30S 32°53' E 151°46'0 0.0
2018-Jun-09 05:01S 32°53' E 151°46'0 0.3
2018-Jun-09 04:28S 32°53' E 151°46'2 1.9
2018-Jun-09 03:22S 32°55' E 151°48'2 2.2
2018-Jun-09 02:38S 32°54' E 151°46'1 2.6
2018-Jun-09 02:23S 32°53' E 151°46'1 0.5
2018-Jun-09 01:00S 32°54' E 151°46'2 4.0
2018-Jun-09 00:30S 32°55' E 151°48'1 2.8
2018-Jun-09 00:00S 32°55' E 151°47'0 0.9
2018-Jun-08 23:30S 32°55' E 151°46'0 0.0
2018-Jun-08 22:58S 32°55' E 151°46'0 0.0
2018-Jun-08 22:30S 32°55' E 151°46'0 0.0
2018-Jun-08 21:59S 32°55' E 151°46'0 0.0
2018-Jun-08 21:30S 32°55' E 151°46'0 0.0
2018-Jun-08 20:55S 32°55' E 151°46'1 1.7
2018-Jun-08 20:12S 32°54' E 151°46'1 3.3
2018-Jun-08 20:00S 32°53' E 151°46'0 0.4
2018-Jun-08 19:19S 32°53' E 151°46'0 0.4
2018-Jun-08 18:49S 32°53' E 151°46'1 2.0
2018-Jun-08 18:27S 32°54' E 151°46'0 0.1
2018-Jun-08 17:33S 32°54' E 151°46'1 7.9
2018-Jun-08 17:27S 32°53' E 151°46'0 0.0
2018-Jun-08 17:00S 32°53' E 151°46'1 0.6
2018-Jun-08 16:04S 32°53' E 151°45'0 2.7
2018-Jun-08 15:59S 32°53' E 151°46'2 1.2
2018-Jun-08 14:26S 32°55' E 151°46'1 0.9
2018-Jun-08 13:04S 32°54' E 151°46'1 8.9
2018-Jun-08 12:59S 32°54' E 151°46'1 0.5
2018-Jun-08 11:29S 32°55' E 151°46'0 0.6
2018-Jun-08 10:56S 32°55' E 151°47'2 3.0
2018-Jun-08 10:25S 32°53' E 151°46'0 0.4
2018-Jun-08 09:56S 32°53' E 151°46'2 4.1
2018-Jun-08 09:27S 32°55' E 151°46'1 2.5
2018-Jun-08 08:58S 32°55' E 151°48'1 2.6
2018-Jun-08 08:30S 32°55' E 151°46'1 1.1
2018-Jun-08 07:17S 32°53' E 151°46'  

Dump ship's entire track history